Time;durP1;ratioP1;P1;durP2;ratioP2;P2;SDS_P1;SDS_P2;PMS_P1;PMS_P2;Temp;Humidity;BMP_temperature;BMP_pressure;BME280_temperature;BME280_humidity;BME280_pressure;Samples;Min_cycle;Max_cycle;Signal;HPM_P1;HPM_P2
2022/06/14 00:00:53;;;;;;;5.47;2.58;;;10.40;99.90;;;;;;5035115;28;20033;-68
2022/06/14 00:03:29;;;;;;;3.60;2.50;;;10.40;99.90;;;;;;5012004;28;20103;-68
2022/06/14 00:06:00;;;;;;;4.13;2.72;;;10.60;99.90;;;;;;5012324;28;20041;-69
2022/06/14 00:08:28;;;;;;;4.35;2.40;;;10.60;99.90;;;;;;5026659;28;20394;-68
2022/06/14 00:10:58;;;;;;;6.43;2.75;;;10.60;99.90;;;;;;5025292;28;20075;-68
2022/06/14 00:13:26;;;;;;;4.95;2.78;;;10.80;99.90;;;;;;5029034;28;20104;-68
2022/06/14 00:15:54;;;;;;;6.47;3.08;;;11.00;99.90;;;;;;5031904;28;20025;-68
2022/06/14 00:18:21;;;;;;;3.88;2.20;;;11.00;99.90;;;;;;5035352;28;20021;-69
2022/06/14 00:20:49;;;;;;;3.42;1.90;;;11.00;99.90;;;;;;5038634;28;20029;-68
2022/06/14 00:23:18;;;;;;;5.57;2.50;;;11.00;99.90;;;;;;5032252;28;20025;-68
2022/06/14 00:25:49;;;;;;;6.97;2.97;;;11.20;99.90;;;;;;5013786;28;20032;-68
2022/06/14 00:28:17;;;;;;;3.78;2.35;;;11.40;99.90;;;;;;5020120;28;20025;-68
2022/06/14 00:30:49;;;;;;;6.70;2.67;;;11.20;99.90;;;;;;5042807;28;20048;-68
2022/06/14 00:33:17;;;;;;;4.15;1.85;;;11.10;99.90;;;;;;5012522;28;20029;-68
2022/06/14 00:35:45;;;;;;;4.05;2.60;;;11.40;99.90;;;;;;5019959;28;20077;-68
2022/06/14 00:38:13;;;;;;;6.53;2.63;;;11.40;99.90;;;;;;5052193;28;20025;-68
2022/06/14 00:40:49;;;;;;;5.85;2.47;;;11.60;99.90;;;;;;5019860;28;20497;-68
2022/06/14 00:43:18;;;;;;;3.95;2.20;;;11.50;99.90;;;;;;5012431;28;20030;-68
2022/06/14 00:45:46;;;;;;;4.30;2.03;;;11.40;99.90;;;;;;5014438;28;20375;-68
2022/06/14 00:48:29;;;;;;;4.07;2.45;;;11.50;99.90;;;;;;5012585;28;20018;-67
2022/06/14 00:51:17;;;;;;;3.63;2.13;;;11.50;99.90;;;;;;5012678;28;20032;-67
2022/06/14 00:53:51;;;;;;;3.97;2.30;;;11.40;99.90;;;;;;5016662;28;20502;-67
2022/06/14 00:56:22;;;;;;;5.38;2.92;;;11.60;99.90;;;;;;5011945;28;20494;-68
2022/06/14 00:59:14;;;;;;;4.70;2.45;;;11.70;99.90;;;;;;5035129;28;20055;-68
2022/06/14 01:01:43;;;;;;;4.22;2.35;;;11.90;99.90;;;;;;5030836;28;20060;-67
2022/06/14 01:04:16;;;;;;;5.22;3.17;;;12.00;99.90;;;;;;5010560;28;20471;-68
2022/06/14 01:07:15;;;;;;;5.75;2.63;;;12.10;99.90;;;;;;5011982;28;20038;-68
2022/06/14 01:10:11;;;;;;;6.85;2.88;;;12.00;99.90;;;;;;5023480;28;20037;-68
2022/06/14 01:12:46;;;;;;;4.85;3.38;;;12.00;99.90;;;;;;5017667;28;20038;-68
2022/06/14 01:15:19;;;;;;;7.47;4.40;;;12.30;99.90;;;;;;5034454;28;20041;-68
2022/06/14 01:17:50;;;;;;;9.60;4.75;;;12.30;99.90;;;;;;5039675;28;20043;-67
2022/06/14 01:20:20;;;;;;;11.13;4.85;;;12.20;99.90;;;;;;5030621;28;20017;-67
2022/06/14 01:22:48;;;;;;;9.70;4.85;;;12.10;99.90;;;;;;5015633;28;20029;-67
2022/06/14 01:25:16;;;;;;;14.95;5.03;;;12.10;99.90;;;;;;5019163;28;20420;-67
2022/06/14 01:27:44;;;;;;;8.70;5.28;;;12.00;99.90;;;;;;5034078;28;20029;-67
2022/06/14 01:30:28;;;;;;;6.97;4.63;;;12.00;99.90;;;;;;5035099;28;20021;-67
2022/06/14 01:33:18;;;;;;;8.90;4.90;;;12.30;99.90;;;;;;5034384;28;20028;-67
2022/06/14 01:35:53;;;;;;;7.75;5.15;;;12.50;99.90;;;;;;5037977;28;20565;-67
2022/06/14 01:38:20;;;;;;;9.20;4.88;;;12.60;99.90;;;;;;5032777;28;20033;-67
2022/06/14 01:41:22;;;;;;;7.80;4.55;;;12.60;99.90;;;;;;5021165;28;20026;-67
2022/06/14 01:44:02;;;;;;;9.57;4.93;;;12.60;99.90;;;;;;5020649;28;20120;-67
2022/06/14 01:46:45;;;;;;;9.80;4.28;;;13.00;99.90;;;;;;5029669;28;20037;-67
2022/06/14 01:52:56;;;;;;;10.57;4.82;;;13.30;99.90;;;;;;5020602;28;20117;-67
2022/06/14 01:55:36;;;;;;;11.90;4.18;;;13.40;99.90;;;;;;5022178;28;20443;-67
2022/06/14 01:58:33;;;;;;;10.05;4.20;;;13.40;99.90;;;;;;5030357;28;20104;-67
2022/06/14 02:01:11;;;;;;;8.52;3.13;;;13.40;99.90;;;;;;5018929;28;20061;-67
2022/06/14 02:07:03;;;;;;;3.17;1.80;;;13.60;99.90;;;;;;5023061;28;20137;-67
2022/06/14 02:09:47;;;;;;;5.65;2.10;;;13.80;99.90;;;;;;5016231;28;20044;-67
2022/06/14 02:12:20;;;;;;;4.03;1.65;;;14.10;99.90;;;;;;5026223;28;20034;-67
2022/06/14 02:15:16;;;;;;;4.15;2.10;;;14.20;99.90;;;;;;5022803;28;20044;-67
2022/06/14 02:18:11;;;;;;;3.47;2.28;;;14.50;99.90;;;;;;5024724;28;20017;-67
2022/06/14 02:20:41;;;;;;;;;;;15.10;99.90;;;;;;5016306;28;20021;-67
2022/06/14 02:23:10;;;;;;;7.30;1.88;;;16.00;99.90;;;;;;5023456;28;19917;-67
2022/06/14 02:25:50;;;;;;;7.40;2.47;;;17.10;99.90;;;;;;5020207;28;20029;-67
2022/06/14 02:28:22;;;;;;;4.22;2.00;;;17.50;99.90;;;;;;5021805;28;20065;-67
2022/06/14 02:31:07;;;;;;;5.40;1.98;;;16.80;99.90;;;;;;5026395;28;20034;-68
2022/06/14 02:33:49;;;;;;;4.40;2.10;;;16.30;99.90;;;;;;5024999;28;20068;-67
2022/06/14 02:36:26;;;;;;;2.97;1.90;;;16.30;99.90;;;;;;5021805;28;20044;-67
2022/06/14 02:39:20;;;;;;;2.50;1.42;;;16.00;99.90;;;;;;5021705;28;20034;-67
2022/06/14 02:41:53;;;;;;;;;;;17.20;99.90;;;;;;5024121;28;20056;-67
2022/06/14 02:44:30;;;;;;;5.38;1.95;;;17.20;99.90;;;;;;5026431;28;20431;-67
2022/06/14 02:47:05;;;;;;;4.22;2.15;;;16.80;99.90;;;;;;5022632;28;20029;-67
2022/06/14 02:49:44;;;;;;;4.53;2.13;;;17.30;99.90;;;;;;5029616;28;20017;-67
2022/06/14 02:52:28;;;;;;;4.65;1.40;;;18.40;99.90;;;;;;5026159;28;20128;-67
2022/06/14 02:55:07;;;;;;;4.00;1.63;;;18.60;99.90;;;;;;5012866;28;20064;-67
2022/06/14 02:57:58;;;;;;;4.25;1.42;;;19.60;99.90;;;;;;5014263;28;20088;-67
2022/06/14 03:00:49;;;;;;;3.58;1.30;;;19.60;99.90;;;;;;5012877;28;20030;-67
2022/06/14 03:03:39;;;;;;;3.38;0.95;;;19.90;99.90;;;;;;5013038;28;20077;-67
2022/06/14 03:06:18;;;;;;;2.78;1.55;;;19.40;99.80;;;;;;5012675;28;20516;-67
2022/06/14 03:09:09;;;;;;;5.57;1.58;;;17.90;99.90;;;;;;5013385;28;20117;-67
2022/06/14 03:12:10;;;;;;;4.20;0.95;;;18.00;99.90;;;;;;5013686;28;20033;-67
2022/06/14 03:14:57;;;;;;;2.80;1.10;;;17.70;99.90;;;;;;5013842;28;20034;-67
2022/06/14 03:18:07;;;;;;;6.28;1.23;;;16.80;99.90;;;;;;5015830;28;20022;-67
2022/06/14 03:20:39;;;;;;;10.02;1.40;;;17.30;99.90;;;;;;5032020;28;20041;-66
2022/06/14 03:23:29;;;;;;;5.00;1.50;;;17.50;99.90;;;;;;5013765;28;20064;-66
2022/06/14 03:26:16;;;;;;;2.17;1.08;;;16.90;99.90;;;;;;5013165;28;20053;-66
2022/06/14 03:28:55;;;;;;;3.33;0.95;;;17.20;99.90;;;;;;5015281;28;20064;-67
2022/06/14 03:31:37;;;;;;;2.67;1.90;;;17.70;99.90;;;;;;5013302;28;20072;-66
2022/06/14 03:34:17;;;;;;;4.13;1.20;;;17.10;99.90;;;;;;5013535;28;20018;-66
2022/06/14 03:36:44;;;;;;;3.97;1.30;;;18.40;99.90;;;;;;5012721;28;20042;-66
2022/06/14 03:39:18;;;;;;;8.35;1.85;;;17.70;99.90;;;;;;5011928;28;20026;-66
2022/06/14 03:41:49;;;;;;;3.53;1.33;;;17.50;99.90;;;;;;5013299;28;20164;-66
2022/06/14 03:44:18;;;;;;;3.13;1.30;;;17.40;99.90;;;;;;5013375;28;20470;-66
2022/06/14 03:47:18;;;;;;;3.00;1.00;;;18.20;99.90;;;;;;5013552;28;20052;-66
2022/06/14 03:49:51;;;;;;;4.38;1.67;;;17.80;99.90;;;;;;5014081;28;20033;-66
2022/06/14 03:52:38;;;;;;;4.03;1.52;;;18.10;99.90;;;;;;5013380;28;20030;-66
2022/06/14 03:55:41;;;;;;;3.80;1.50;;;17.80;99.90;;;;;;5011295;28;20057;-66
2022/06/14 03:58:29;;;;;;;6.15;1.48;;;17.60;99.90;;;;;;5012566;28;20029;-67
2022/06/14 04:01:04;;;;;;;2.45;0.85;;;17.80;99.90;;;;;;5012543;28;20029;-66
2022/06/14 04:03:57;;;;;;;2.65;0.68;;;17.20;99.90;;;;;;5013214;28;20073;-66
2022/06/14 04:06:42;;;;;;;2.53;0.75;;;16.70;99.90;;;;;;5015061;28;20054;-66
2022/06/14 04:09:19;;;;;;;3.83;1.23;;;16.80;99.90;;;;;;5012843;28;20430;-66
2022/06/14 04:11:59;;;;;;;1.73;0.90;;;17.00;99.90;;;;;;5016472;28;20488;-66
2022/06/14 04:14:38;;;;;;;2.85;0.85;;;16.50;99.90;;;;;;5032703;28;20029;-66
2022/06/14 04:17:26;;;;;;;2.78;0.85;;;16.60;99.90;;;;;;5018755;28;20037;-67
2022/06/14 04:20:08;;;;;;;2.30;0.60;;;16.70;99.90;;;;;;5017874;28;20029;-67
2022/06/14 04:22:54;;;;;;;2.80;0.63;;;16.70;99.90;;;;;;5027439;28;20025;-67
2022/06/14 04:25:27;;;;;;;6.00;0.52;;;16.90;99.90;;;;;;5019444;28;20033;-67
2022/06/14 04:28:10;;;;;;;2.55;0.63;;;16.80;99.90;;;;;;5033224;28;20030;-67
2022/06/14 04:30:59;;;;;;;5.63;1.25;;;16.90;99.90;;;;;;5017299;28;20018;-67
2022/06/14 04:33:55;;;;;;;2.67;0.55;;;16.90;99.90;;;;;;5035573;28;20025;-67
2022/06/14 04:36:30;;;;;;;1.08;0.30;;;16.90;99.90;;;;;;5022124;28;20549;-66
2022/06/14 04:39:04;;;;;;;4.72;0.38;;;16.70;99.90;;;;;;5014920;28;20045;-67
2022/06/14 04:41:58;;;;;;;3.92;0.35;;;16.80;99.90;;;;;;5022461;28;20049;-67
2022/06/14 04:44:31;;;;;;;2.13;0.40;;;16.90;99.90;;;;;;5036717;28;20038;-67
2022/06/14 04:47:21;;;;;;;0.40;0.13;;;16.70;99.90;;;;;;5023189;28;20493;-67
2022/06/14 04:49:52;;;;;;;0.95;0.20;;;16.80;99.90;;;;;;5026120;28;20116;-67
2022/06/14 04:52:45;;;;;;;1.52;0.20;;;16.70;99.90;;;;;;5027562;28;20063;-67
2022/06/14 04:55:19;;;;;;;0.50;0.10;;;16.50;99.90;;;;;;5038959;28;20055;-66
2022/06/14 04:58:23;;;;;;;2.43;0.10;;;16.40;99.90;;;;;;5021254;28;20100;-67
2022/06/14 05:01:22;;;;;;;3.70;0.30;;;16.30;99.90;;;;;;5031209;28;20025;-66
2022/06/14 05:03:55;;;;;;;1.98;0.60;;;16.20;99.90;;;;;;5016704;28;20029;-66
2022/06/14 05:06:34;;;;;;;0.88;0.28;;;16.20;99.90;;;;;;5014489;28;20034;-66
2022/06/14 05:09:09;;;;;;;1.08;0.20;;;16.20;99.90;;;;;;5015332;28;20026;-67
2022/06/14 05:11:56;;;;;;;2.40;0.35;;;16.30;99.90;;;;;;5022233;28;20413;-66
2022/06/14 05:14:34;;;;;;;2.20;0.60;;;16.30;99.90;;;;;;5043738;28;20116;-66
2022/06/14 05:17:20;;;;;;;1.90;0.30;;;16.20;99.90;;;;;;5033043;28;20044;-66
2022/06/14 05:19:59;;;;;;;1.92;0.35;;;16.20;99.90;;;;;;5037160;28;20033;-66
2022/06/14 05:22:45;;;;;;;0.63;0.10;;;16.20;99.90;;;;;;5031276;28;20029;-66
2022/06/14 05:25:14;;;;;;;0.88;0.35;;;16.20;99.90;;;;;;5025792;28;20067;-67
2022/06/14 05:27:48;;;;;;;2.15;0.40;;;16.20;99.90;;;;;;5020157;28;20486;-67
2022/06/14 05:30:28;;;;;;;4.90;2.20;;;16.10;99.90;;;;;;5022928;28;20025;-67
2022/06/14 05:33:14;;;;;;;3.50;0.38;;;16.10;99.90;;;;;;5025798;28;20026;-67
2022/06/14 05:35:57;;;;;;;6.57;0.47;;;16.00;99.90;;;;;;5028874;28;20127;-68
2022/06/14 05:38:54;;;;;;;1.27;0.57;;;16.00;99.90;;;;;;5024086;28;20095;-67
2022/06/14 05:41:49;;;;;;;22.50;11.10;;;15.80;99.90;;;;;;5019612;28;20104;-67
2022/06/14 05:44:31;;;;;;;2.53;0.32;;;15.80;99.90;;;;;;5031851;28;20029;-68
2022/06/14 05:47:22;;;;;;;1.55;0.40;;;15.70;99.90;;;;;;5028875;28;20042;-66
2022/06/14 05:49:56;;;;;;;1.02;0.40;;;15.70;99.90;;;;;;5030335;28;20128;-68
2022/06/14 05:52:29;;;;;;;2.63;0.90;;;15.80;99.90;;;;;;5034333;28;20029;-67
2022/06/14 05:55:15;;;;;;;3.67;0.90;;;15.80;99.90;;;;;;5014952;28;20068;-67
2022/06/14 05:57:48;;;;;;;4.95;1.88;;;15.60;99.90;;;;;;5040709;28;20025;-67
2022/06/14 06:00:17;;;;;;;26.15;14.25;;;15.60;99.90;;;;;;5016015;28;20368;-66
2022/06/14 06:02:53;;;;;;;7.03;3.03;;;15.40;99.90;;;;;;5021420;28;20017;-67
2022/06/14 06:05:36;;;;;;;7.22;1.33;;;15.40;99.90;;;;;;5032942;28;20026;-67
2022/06/14 06:08:23;;;;;;;5.07;1.05;;;15.10;99.90;;;;;;5046362;28;20034;-67
2022/06/14 06:10:55;;;;;;;3.05;1.20;;;15.10;99.90;;;;;;5023317;28;20050;-67
2022/06/14 06:13:31;;;;;;;5.20;1.67;;;15.00;99.90;;;;;;5023560;28;20444;-67
2022/06/14 06:16:13;;;;;;;7.30;1.98;;;14.90;99.90;;;;;;5027649;28;20064;-67
2022/06/14 06:18:49;;;;;;;6.50;0.90;;;14.90;99.90;;;;;;5032188;28;20026;-67
2022/06/14 06:21:45;;;;;;;8.38;0.82;;;14.80;99.90;;;;;;5026219;28;20434;-67
2022/06/14 06:24:15;;;;;;;5.53;1.33;;;14.70;99.90;;;;;;5018662;28;20041;-67
2022/06/14 06:26:49;;;;;;;5.10;1.08;;;14.60;99.90;;;;;;5027051;28;20029;-67
2022/06/14 06:29:37;;;;;;;8.63;1.70;;;14.60;99.90;;;;;;5013844;28;20037;-67
2022/06/14 06:32:06;;;;;;;5.00;1.65;;;14.60;99.90;;;;;;5028410;28;20678;-67
2022/06/14 06:34:34;;;;;;;5.20;1.73;;;14.50;99.90;;;;;;5030753;28;20035;-67
2022/06/14 06:37:22;;;;;;;12.93;1.75;;;14.40;99.90;;;;;;5022398;28;20038;-66
2022/06/14 06:40:10;;;;;;;5.28;1.15;;;14.40;99.90;;;;;;5027327;28;20036;-66
2022/06/14 06:42:46;;;;;;;7.75;1.50;;;14.30;99.90;;;;;;5027001;28;20033;-67
2022/06/14 06:45:37;;;;;;;6.38;2.05;;;14.30;99.90;;;;;;5022646;28;20049;-66
2022/06/14 06:48:41;;;;;;;7.40;1.35;;;14.20;99.90;;;;;;5018601;28;20025;-67
2022/06/14 06:51:14;;;;;;;6.40;1.60;;;14.10;99.90;;;;;;5033668;28;20059;-67
2022/06/14 06:53:50;;;;;;;4.30;1.20;;;14.10;99.90;;;;;;5020071;28;20129;-67
2022/06/14 06:56:39;;;;;;;12.27;1.77;;;14.00;99.90;;;;;;5017428;28;20359;-67
2022/06/14 06:59:35;;;;;;;12.27;1.95;;;14.00;99.90;;;;;;5028149;28;20021;-67
2022/06/14 07:02:13;;;;;;;5.15;1.77;;;13.90;99.90;;;;;;5023995;28;20049;-66
2022/06/14 07:07:41;;;;;;;10.05;2.42;;;13.80;99.90;;;;;;5026835;28;20516;-67
2022/06/14 07:10:29;;;;;;;6.25;1.88;;;13.70;99.90;;;;;;5041020;28;20029;-67
2022/06/14 07:13:22;;;;;;;8.57;2.50;;;13.70;99.90;;;;;;5026355;28;20057;-67
2022/06/14 07:16:05;;;;;;;7.63;2.30;;;13.70;99.90;;;;;;5029341;28;20520;-67
2022/06/14 07:18:38;;;;;;;7.38;2.42;;;13.60;99.90;;;;;;5031718;28;20034;-67
2022/06/14 07:21:33;;;;;;;7.78;2.30;;;13.60;99.90;;;;;;5025617;28;20096;-67
2022/06/14 07:24:11;;;;;;;6.90;1.75;;;13.50;99.90;;;;;;5023169;28;20033;-67
2022/06/14 07:26:50;;;;;;;6.95;2.40;;;13.50;99.90;;;;;;5021709;28;20025;-67
2022/06/14 07:29:48;;;;;;;10.20;2.75;;;13.40;99.90;;;;;;5031616;28;20082;-67
2022/06/14 07:32:21;;;;;;;11.68;3.58;;;13.40;99.90;;;;;;5025737;28;20049;-68
2022/06/14 07:34:49;;;;;;;8.23;2.53;;;13.40;99.90;;;;;;5029648;28;20460;-68
2022/06/14 07:37:20;;;;;;;12.13;3.42;;;13.30;99.90;;;;;;5023932;28;20034;-68
2022/06/14 07:40:10;;;;;;;10.88;2.85;;;13.30;99.90;;;;;;5015077;28;20422;-68
2022/06/14 07:43:07;;;;;;;9.55;2.30;;;13.20;99.90;;;;;;5017410;28;20055;-68
2022/06/14 07:45:39;;;;;;;12.60;3.90;;;13.20;99.90;;;;;;5018440;28;20026;-68
2022/06/14 07:48:14;;;;;;;9.88;3.08;;;13.20;99.90;;;;;;5015073;28;20064;-68
2022/06/14 07:50:55;;;;;;;16.48;3.50;;;13.20;99.90;;;;;;5024490;28;20026;-67
2022/06/14 07:53:36;;;;;;;10.10;3.33;;;13.10;99.90;;;;;;5032452;28;20072;-67
2022/06/14 07:56:14;;;;;;;10.57;3.15;;;13.10;99.90;;;;;;5028016;28;20029;-67
2022/06/14 07:58:48;;;;;;;9.02;2.78;;;13.10;99.90;;;;;;5013581;28;20078;-68
2022/06/14 08:01:42;;;;;;;9.85;2.85;;;13.10;99.90;;;;;;5014268;28;20025;-68
2022/06/14 08:04:22;;;;;;;9.20;2.73;;;13.10;99.90;;;;;;5014278;28;20032;-68
2022/06/14 08:07:10;;;;;;;7.32;2.97;;;13.00;99.90;;;;;;5019188;28;20479;-68
2022/06/14 08:09:46;;;;;;;10.98;3.50;;;13.00;99.90;;;;;;5014184;28;20036;-68
2022/06/14 08:12:38;;;;;;;8.90;3.08;;;12.90;99.90;;;;;;5014307;28;20025;-68
2022/06/14 08:15:10;;;;;;;13.02;3.28;;;12.90;99.90;;;;;;5013941;28;20113;-67
2022/06/14 08:18:11;;;;;;;9.40;3.40;;;12.90;99.90;;;;;;5013287;28;20022;-68
2022/06/14 08:21:08;;;;;;;9.30;3.67;;;12.90;99.90;;;;;;5028653;28;20029;-68
2022/06/14 08:23:42;;;;;;;11.45;3.45;;;12.90;99.90;;;;;;5017930;28;20386;-67
2022/06/14 08:26:12;;;;;;;;;;;12.90;99.90;;;;;;5015315;28;20033;-68
2022/06/14 08:28:48;;;;;;;13.98;3.40;;;12.80;99.90;;;;;;5013547;28;19953;-68
2022/06/14 08:31:26;;;;;;;12.63;3.15;;;12.90;99.90;;;;;;5016015;28;20048;-68
2022/06/14 08:34:00;;;;;;;13.73;3.80;;;12.80;99.90;;;;;;5014332;28;20022;-67
2022/06/14 08:36:51;;;;;;;9.13;3.30;;;12.90;99.90;;;;;;5013643;28;20038;-67
2022/06/14 08:39:29;;;;;;;9.57;3.70;;;12.90;99.90;;;;;;5012758;28;20383;-68
2022/06/14 08:42:19;;;;;;;14.98;3.35;;;12.80;99.90;;;;;;5013628;28;20083;-68
2022/06/14 08:45:00;;;;;;;10.18;3.55;;;12.80;99.90;;;;;;5013379;28;20034;-67
2022/06/14 08:47:27;;;;;;;9.50;3.35;;;12.80;99.90;;;;;;5013926;28;20026;-67
2022/06/14 08:50:18;;;;;;;11.18;3.08;;;12.80;99.90;;;;;;5024045;28;20017;-68
2022/06/14 08:53:03;;;;;;;14.63;3.80;;;13.00;99.90;;;;;;5023672;28;20053;-67
2022/06/14 08:55:57;;;;;;;11.07;3.45;;;12.90;99.90;;;;;;5016126;28;20384;-67
2022/06/14 08:58:48;;;;;;;12.75;3.75;;;12.80;99.90;;;;;;5011728;28;20088;-67
2022/06/14 09:01:37;;;;;;;12.57;4.68;;;12.70;99.90;;;;;;5017033;28;20524;-68
2022/06/14 09:04:37;;;;;;;17.65;5.50;;;12.60;99.90;;;;;;5030908;28;20034;-68
2022/06/14 09:07:30;;;;;;;28.35;7.70;;;12.50;99.90;;;;;;5020217;28;20030;-67
2022/06/14 09:10:20;;;;;;;23.80;7.28;;;12.40;99.90;;;;;;5032352;28;20363;-68
2022/06/14 09:12:56;;;;;;;20.90;7.60;;;12.30;99.90;;;;;;5025357;28;20028;-67
2022/06/14 09:15:44;;;;;;;16.52;6.57;;;12.30;99.90;;;;;;5019323;28;20025;-67
2022/06/14 09:18:36;;;;;;;19.48;5.65;;;12.30;99.90;;;;;;5015326;28;20026;-67
2022/06/14 09:21:16;;;;;;;15.30;4.78;;;12.30;99.90;;;;;;5024949;28;20026;-67
2022/06/14 09:23:55;;;;;;;11.77;4.70;;;12.20;99.90;;;;;;5026255;28;20478;-66
2022/06/14 09:26:31;;;;;;;13.15;4.30;;;12.20;99.90;;;;;;5025265;28;20044;-67
2022/06/14 09:29:21;;;;;;;13.60;5.05;;;12.30;99.90;;;;;;5031518;28;20033;-67
2022/06/14 09:32:12;;;;;;;10.20;4.30;;;12.20;99.90;;;;;;5028866;28;20049;-67
2022/06/14 09:34:56;;;;;;;13.80;4.45;;;12.20;99.90;;;;;;5031719;28;20055;-67
2022/06/14 09:37:36;;;;;;;13.23;4.85;;;12.20;99.90;;;;;;5035157;28;20032;-68
2022/06/14 09:40:31;;;;;;;11.63;4.68;;;12.10;99.90;;;;;;5034233;28;20386;-68
2022/06/14 09:43:13;;;;;;;17.73;5.43;;;12.10;99.90;;;;;;5030018;28;20032;-68
2022/06/14 09:45:50;;;;;;;18.40;5.40;;;12.00;99.90;;;;;;5028756;28;20093;-67
2022/06/14 09:48:38;;;;;;;14.52;5.32;;;12.00;99.90;;;;;;5022961;28;20037;-67
2022/06/14 09:51:26;;;;;;;22.65;7.28;;;12.00;99.90;;;;;;5022903;28;20102;-68
2022/06/14 09:54:21;;;;;;;13.48;4.88;;;11.90;99.90;;;;;;5039064;28;20065;-68
2022/06/14 09:57:09;;;;;;;12.13;5.93;;;11.90;99.90;;;;;;5017040;28;20040;-68
2022/06/14 10:00:14;;;;;;;14.95;5.47;;;11.90;99.90;;;;;;5037924;28;20099;-67
2022/06/14 10:03:12;;;;;;;12.77;5.20;;;11.90;99.90;;;;;;5021886;28;20090;-67
2022/06/14 10:06:21;;;;;;;12.20;4.80;;;11.90;99.90;;;;;;5023316;28;20021;-67
2022/06/14 10:08:54;;;;;;;11.00;3.95;;;11.90;99.90;;;;;;5046590;28;20103;-67
2022/06/14 10:11:38;;;;;;;12.43;5.30;;;11.80;99.90;;;;;;5041677;28;20026;-67
2022/06/14 10:14:41;;;;;;;11.38;3.92;;;11.80;99.90;;;;;;5039803;28;20049;-68
2022/06/14 10:17:40;;;;;;;13.75;4.25;;;11.80;99.90;;;;;;5049765;28;20025;-68
2022/06/14 10:20:26;;;;;;;11.48;4.15;;;11.70;99.90;;;;;;5034252;28;20463;-68
2022/06/14 10:23:11;;;;;;;9.40;3.65;;;11.70;99.90;;;;;;5022369;28;20045;-68
2022/06/14 10:29:08;;;;;;;10.98;3.88;;;11.60;99.90;;;;;;5053597;28;20096;-68
2022/06/14 10:32:02;;;;;;;7.70;3.88;;;11.60;99.90;;;;;;5014170;28;20076;-68
2022/06/14 10:34:35;;;;;;;8.43;4.05;;;11.50;99.90;;;;;;5034071;28;20052;-68
2022/06/14 10:37:37;;;;;;;7.93;3.92;;;11.50;99.90;;;;;;5030913;28;20053;-68
2022/06/14 10:40:19;;;;;;;7.53;3.03;;;11.50;99.90;;;;;;5025099;28;20084;-68
2022/06/14 10:43:00;;;;;;;9.63;3.58;;;11.50;99.90;;;;;;5023811;28;20025;-68
2022/06/14 10:45:33;;;;;;;9.20;4.07;;;11.40;99.90;;;;;;5023381;28;20025;-68
2022/06/14 10:48:24;;;;;;;7.05;3.55;;;11.40;99.90;;;;;;5033976;28;20029;-68
2022/06/14 10:51:12;;;;;;;38.15;14.90;;;11.30;99.90;;;;;;5032324;28;20037;-68
2022/06/14 10:54:11;;;;;;;46.63;17.58;;;11.30;99.90;;;;;;5017793;28;20041;-68
2022/06/14 10:57:15;;;;;;;45.45;16.15;;;11.30;99.90;;;;;;5031427;28;20029;-68
2022/06/14 10:59:48;;;;;;;17.60;6.00;;;11.40;99.90;;;;;;5025831;28;20029;-68
2022/06/14 11:02:39;;;;;;;16.13;5.57;;;11.40;99.90;;;;;;5039713;28;20155;-68
2022/06/14 11:05:33;;;;;;;9.65;4.93;;;11.40;99.90;;;;;;5014861;28;20399;-68
2022/06/14 11:08:03;;;;;;;14.07;6.03;;;11.30;99.90;;;;;;5037633;28;20048;-67
2022/06/14 11:10:49;;;;;;;13.98;6.65;;;11.30;99.90;;;;;;5039391;28;20025;-68
2022/06/14 11:13:25;;;;;;;9.90;5.28;;;11.30;99.90;;;;;;5035770;28;20486;-68
2022/06/14 11:16:28;;;;;;;16.00;6.20;;;11.30;99.90;;;;;;5031734;28;20022;-68
2022/06/14 11:18:58;;;;;;;16.35;6.25;;;11.20;99.90;;;;;;5015394;28;20029;-67
2022/06/14 11:21:37;;;;;;;13.40;5.50;;;11.20;99.90;;;;;;5018782;28;20034;-68
2022/06/14 11:24:36;;;;;;;13.65;6.03;;;11.10;99.90;;;;;;5038350;28;20033;-68
2022/06/14 11:27:24;;;;;;;11.38;5.47;;;11.00;99.90;;;;;;5018978;28;20041;-68
2022/06/14 11:30:10;;;;;;;8.95;5.03;;;10.90;99.90;;;;;;5024212;28;20072;-68
2022/06/14 11:33:27;;;;;;;13.02;5.00;;;10.80;99.90;;;;;;5021052;28;20041;-68
2022/06/14 11:35:59;;;;;;;12.57;4.95;;;10.80;99.90;;;;;;5012010;28;20053;-68
2022/06/14 11:38:53;;;;;;;11.80;5.43;;;10.70;99.90;;;;;;5031612;28;20525;-68
2022/06/14 11:41:24;;;;;;;15.65;5.28;;;10.70;99.90;;;;;;5017333;28;20029;-68
2022/06/14 11:44:01;;;;;;;11.10;5.47;;;10.70;99.90;;;;;;5020684;28;20025;-68
2022/06/14 11:46:38;;;;;;;8.23;4.40;;;10.60;99.90;;;;;;5014905;28;20076;-68
2022/06/14 11:49:17;;;;;;;9.32;5.03;;;10.60;99.90;;;;;;5015830;28;20033;-68
2022/06/14 11:51:50;;;;;;;8.70;4.88;;;10.60;99.90;;;;;;5014613;28;20035;-68
2022/06/14 11:54:38;;;;;;;8.23;3.85;;;10.50;99.90;;;;;;5012213;28;20049;-68
2022/06/14 11:57:29;;;;;;;7.55;3.63;;;10.50;99.90;;;;;;5019156;28;20112;-68
2022/06/14 12:00:09;;;;;;;7.88;3.78;;;10.50;99.90;;;;;;5020312;28;20087;-68
2022/06/14 12:02:51;;;;;;;8.10;4.50;;;10.50;99.90;;;;;;5028471;28;20038;-68
2022/06/14 12:06:11;;;;;;;6.43;3.72;;;10.50;99.90;;;;;;5018897;28;20026;-68
2022/06/14 12:09:03;;;;;;;6.93;3.47;;;10.50;99.90;;;;;;5017541;28;20041;-68
2022/06/14 12:11:40;;;;;;;9.77;3.63;;;10.50;99.90;;;;;;5029539;28;20032;-68
2022/06/14 12:14:36;;;;;;;6.60;3.95;;;10.50;99.90;;;;;;5041888;28;20037;-68
2022/06/14 12:17:30;;;;;;;7.65;4.30;;;10.50;99.90;;;;;;5019452;28;20108;-68
2022/06/14 12:20:12;;;;;;;9.70;4.10;;;10.50;99.90;;;;;;5029205;28;20025;-68
2022/06/14 12:22:46;;;;;;;5.38;2.97;;;10.50;99.90;;;;;;5027935;28;20025;-68
2022/06/14 12:28:44;;;;;;;4.88;3.20;;;10.40;99.90;;;;;;5026950;28;20130;-68
2022/06/14 12:31:21;;;;;;;4.72;3.17;;;10.50;99.90;;;;;;5026932;28;20041;-67
2022/06/14 12:33:55;;;;;;;8.82;3.28;;;10.40;99.90;;;;;;5023881;28;20105;-67
2022/06/14 12:36:34;;;;;;;5.43;2.90;;;10.40;99.90;;;;;;5035619;28;20412;-68
2022/06/14 12:39:15;;;;;;;8.55;3.20;;;10.40;99.90;;;;;;5020104;28;20108;-68
2022/06/14 12:42:07;;;;;;;6.97;3.15;;;10.40;99.90;;;;;;5032380;28;20021;-68
2022/06/14 12:44:59;;;;;;;6.78;3.58;;;10.40;99.90;;;;;;5026199;28;20024;-68
2022/06/14 12:47:58;;;;;;;5.93;3.42;;;10.50;99.90;;;;;;5030313;28;20044;-68
2022/06/14 12:50:51;;;;;;;6.15;3.00;;;10.50;99.90;;;;;;5012207;28;20051;-67
2022/06/14 12:53:55;;;;;;;5.32;2.58;;;10.50;99.90;;;;;;5019519;28;20041;-67
2022/06/14 12:56:45;;;;;;;4.88;2.15;;;10.50;99.90;;;;;;5019546;28;20112;-67
2022/06/14 12:59:16;;;;;;;4.93;2.20;;;10.50;99.90;;;;;;5019361;28;20492;-68
2022/06/14 13:02:01;;;;;;;7.53;2.65;;;10.50;99.90;;;;;;5021551;28;20034;-68
2022/06/14 13:04:36;;;;;;;3.90;2.15;;;10.50;99.90;;;;;;5021949;28;20688;-67
2022/06/14 13:07:22;;;;;;;16.77;3.53;;;10.40;99.90;;;;;;5033347;28;20510;-68
2022/06/14 13:10:13;;;;;;;5.57;5.18;;;10.40;99.90;;;;;;5027048;28;20018;-67
2022/06/14 13:13:04;;;;;;;6.45;3.72;;;10.30;99.90;;;;;;5022362;28;20057;-67
2022/06/14 13:15:42;;;;;;;6.07;3.20;;;10.10;99.90;;;;;;5037598;28;20108;-68
2022/06/14 13:18:12;;;;;;;6.53;3.85;;;10.10;99.90;;;;;;5027477;28;20527;-68
2022/06/14 13:20:59;;;;;;;10.63;4.25;;;10.10;99.90;;;;;;5027023;28;20547;-68
2022/06/14 13:24:11;;;;;;;5.72;3.50;;;10.10;99.90;;;;;;5030542;28;20064;-68
2022/06/14 13:26:58;;;;;;;9.95;4.20;;;10.00;99.90;;;;;;5015674;28;20046;-68
2022/06/14 13:29:46;;;;;;;9.30;4.32;;;10.00;99.90;;;;;;5021504;28;20120;-67
2022/06/14 13:32:32;;;;;;;7.78;4.32;;;9.90;99.90;;;;;;5030737;28;20034;-68
2022/06/14 13:35:29;;;;;;;6.72;6.07;;;9.90;99.90;;;;;;5024907;28;20811;-67
2022/06/14 13:38:19;;;;;;;8.50;3.92;;;9.90;99.90;;;;;;5024066;28;20025;-67
2022/06/14 13:40:46;;;;;;;6.88;3.47;;;9.80;99.90;;;;;;5024348;28;20116;-67
2022/06/14 13:43:35;;;;;;;10.00;4.50;;;9.80;99.90;;;;;;5028758;28;20044;-67
2022/06/14 13:46:24;;;;;;;6.28;4.28;;;9.70;99.90;;;;;;5017300;28;21163;-67
2022/06/14 13:49:23;;;;;;;5.32;3.63;;;9.80;99.90;;;;;;5022893;28;20037;-68
2022/06/14 13:52:15;;;;;;;9.18;4.25;;;9.80;99.90;;;;;;5021725;28;20552;-67
2022/06/14 13:55:04;;;;;;;9.55;4.50;;;9.70;99.90;;;;;;5018649;28;20050;-68
2022/06/14 13:58:01;;;;;;;10.35;4.10;;;9.70;99.90;;;;;;5015430;28;20065;-68
2022/06/14 14:00:38;;;;;;;7.07;4.30;;;9.60;99.90;;;;;;5020147;28;20065;-67
2022/06/14 14:03:44;;;;;;;7.28;3.92;;;9.60;99.90;;;;;;5023562;28;20020;-68
2022/06/14 14:06:29;;;;;;;8.90;4.05;;;9.60;99.90;;;;;;5023112;28;20033;-68
2022/06/14 14:09:35;;;;;;;7.10;4.32;;;9.60;99.90;;;;;;5026698;28;20029;-68
2022/06/14 14:12:20;;;;;;;;;;;9.50;99.90;;;;;;5025172;28;20041;-67
2022/06/14 14:15:33;;;;;;;8.32;4.97;;;9.50;99.90;;;;;;5039709;28;19916;-68
2022/06/14 14:18:10;;;;;;;13.10;5.85;;;9.50;99.90;;;;;;5012564;28;20040;-68
2022/06/14 14:21:01;;;;;;;8.80;5.20;;;9.60;99.90;;;;;;5023793;28;20057;-68
2022/06/14 14:23:37;;;;;;;9.57;6.00;;;9.40;99.90;;;;;;5017344;28;20036;-68